Terminal Aerodrome Forecast
Issued by NWS

Home | Current Version | Previous Version | Text Only | Print | Product List | Glossary On
Versions: 1 2 3 4 5 6 7 8 9 10 11 12
000
FTUS45 KREV 041720
TAFCXP
TAF
KCXP 041720Z 0418/0518 VRB03KT P6SM BKN200
     FM042000 25008KT P6SM FEW080 BKN200
     FM050400 29008KT P6SM SCT080 BKN150=

USA.gov is the U.S. government's official web portal to all federal, state and local government web resources and services.